createdAt,value
2023-08-27T00:01:14.679Z,17.60
2023-08-27T00:03:47.540Z,17.59
2023-08-27T00:06:20.502Z,17.55
2023-08-27T00:08:53.797Z,17.56
2023-08-27T00:11:26.415Z,17.48
2023-08-27T00:13:59.147Z,17.58
2023-08-27T00:16:34.461Z,17.55
2023-08-27T00:19:07.082Z,17.58
2023-08-27T00:21:40.024Z,17.59
2023-08-27T00:24:12.535Z,17.55
2023-08-27T00:26:45.427Z,17.57
2023-08-27T00:29:20.633Z,17.56
2023-08-27T00:31:55.344Z,17.52
2023-08-27T00:34:33.588Z,17.45
2023-08-27T00:37:06.742Z,17.50
2023-08-27T00:39:40.286Z,17.50
2023-08-27T00:42:13.747Z,17.52
2023-08-27T00:44:46.377Z,17.51
2023-08-27T00:47:21.616Z,17.53
2023-08-27T00:49:54.746Z,17.52
2023-08-27T00:52:28.144Z,17.50
2023-08-27T00:55:02.390Z,17.51
2023-08-27T00:57:37.804Z,17.49
2023-08-27T01:00:12.262Z,17.48
2023-08-27T01:02:48.599Z,17.50
2023-08-27T01:05:22.150Z,17.50
2023-08-27T01:08:00.806Z,17.50
2023-08-27T01:10:48.176Z,17.50
2023-08-27T01:13:28.247Z,17.49
2023-08-27T01:16:03.013Z,17.47
2023-08-27T01:18:37.694Z,17.46
2023-08-27T01:21:21.158Z,17.41
2023-08-27T01:23:54.654Z,17.35
2023-08-27T01:26:36.640Z,17.44
2023-08-27T01:29:22.192Z,17.44
2023-08-27T01:32:09.262Z,17.43
2023-08-27T01:34:43.493Z,17.40
2023-08-27T01:37:19.047Z,17.44
2023-08-27T01:39:59.641Z,17.42
2023-08-27T01:42:34.193Z,17.30
2023-08-27T01:45:10.408Z,17.44
2023-08-27T01:47:43.702Z,17.40
2023-08-27T01:50:16.570Z,17.43
2023-08-27T01:52:52.534Z,17.43
2023-08-27T01:55:25.130Z,17.39
2023-08-27T01:57:59.434Z,17.42
2023-08-27T02:00:32.679Z,17.42
2023-08-27T02:03:07.476Z,17.39
2023-08-27T02:05:40.053Z,17.38
2023-08-27T02:08:14.713Z,17.36
2023-08-27T02:10:49.461Z,17.35
2023-08-27T02:13:22.723Z,17.28
2023-08-27T02:15:55.451Z,17.24
2023-08-27T02:18:28.511Z,17.27
2023-08-27T02:21:01.110Z,17.23
2023-08-27T02:23:36.114Z,17.23
2023-08-27T02:26:09.242Z,17.19
2023-08-27T02:28:42.433Z,17.20
2023-08-27T02:31:15.685Z,16.99
2023-08-27T02:33:48.358Z,17.18
2023-08-27T02:36:22.623Z,17.16
2023-08-27T02:38:57.029Z,17.12
2023-08-27T02:41:29.934Z,17.15
2023-08-27T02:44:03.328Z,17.13
2023-08-27T02:46:36.030Z,17.10
2023-08-27T02:49:09.288Z,17.11
2023-08-27T02:51:42.681Z,17.14
2023-08-27T02:54:16.938Z,17.03
2023-08-27T02:56:49.669Z,17.14
2023-08-27T02:59:22.569Z,17.14
2023-08-27T03:01:55.510Z,17.13
2023-08-27T03:04:29.033Z,16.99
2023-08-27T03:07:01.542Z,17.10
2023-08-27T03:09:35.895Z,17.12
2023-08-27T03:12:09.275Z,17.11
2023-08-27T03:14:42.552Z,17.11
2023-08-27T03:17:15.534Z,17.09
2023-08-27T03:19:48.790Z,17.10
2023-08-27T03:22:21.443Z,17.04
2023-08-27T03:24:56.385Z,17.04
2023-08-27T03:27:30.377Z,17.08
2023-08-27T03:30:05.183Z,17.04
2023-08-27T03:32:39.190Z,17.08
2023-08-27T03:35:12.787Z,17.06
2023-08-27T03:37:45.936Z,17.08
2023-08-27T03:40:22.132Z,17.09
2023-08-27T03:42:54.688Z,17.00
2023-08-27T03:45:28.188Z,17.06
2023-08-27T03:48:00.808Z,17.14
2023-08-27T03:50:34.139Z,17.17
2023-08-27T03:53:07.473Z,17.18
2023-08-27T03:55:43.043Z,17.07
2023-08-27T03:58:16.135Z,17.22
2023-08-27T04:00:50.101Z,17.24
2023-08-27T04:03:23.120Z,17.26
2023-08-27T04:05:55.718Z,17.30
2023-08-27T04:08:28.969Z,17.28
2023-08-27T04:11:03.352Z,17.29
2023-08-27T04:13:36.736Z,17.39
2023-08-27T04:16:12.700Z,17.42
2023-08-27T04:18:45.804Z,17.45
2023-08-27T04:21:18.725Z,17.47
2023-08-27T04:23:52.769Z,17.55
2023-08-27T04:26:26.773Z,17.60
2023-08-27T04:28:59.681Z,17.65
2023-08-27T04:31:33.963Z,17.66
2023-08-27T04:34:07.054Z,17.72
2023-08-27T04:36:40.501Z,17.76
2023-08-27T04:39:14.926Z,17.79
2023-08-27T04:41:49.884Z,17.77
2023-08-27T04:44:22.846Z,17.80
2023-08-27T04:46:58.637Z,17.78
2023-08-27T04:49:31.586Z,17.83
2023-08-27T04:52:07.305Z,17.80
2023-08-27T04:54:43.549Z,17.76
2023-08-27T04:57:18.295Z,17.84
2023-08-27T04:59:51.538Z,17.90
2023-08-27T05:02:24.752Z,17.91
2023-08-27T05:04:57.805Z,17.92
2023-08-27T05:07:30.646Z,17.94
2023-08-27T05:10:04.182Z,17.96
2023-08-27T05:12:38.574Z,17.97
2023-08-27T05:15:13.417Z,17.98
2023-08-27T05:17:46.758Z,17.93
2023-08-27T05:20:19.413Z,17.99
2023-08-27T05:22:52.353Z,18.00
2023-08-27T05:25:25.293Z,18.03
2023-08-27T05:28:00.795Z,18.02
2023-08-27T05:30:34.344Z,18.13
2023-08-27T05:33:08.806Z,18.17
2023-08-27T05:35:42.995Z,18.19
2023-08-27T05:38:16.888Z,18.21
2023-08-27T05:40:52.162Z,18.24
2023-08-27T05:43:28.234Z,18.29
2023-08-27T05:46:00.844Z,18.34
2023-08-27T05:48:34.444Z,18.39
2023-08-27T05:51:08.548Z,18.47
2023-08-27T05:53:45.574Z,18.57
2023-08-27T05:56:20.064Z,18.63
2023-08-27T05:58:55.019Z,18.67
2023-08-27T06:01:29.349Z,18.72
2023-08-27T06:04:02.383Z,18.75
2023-08-27T06:06:35.727Z,18.78
2023-08-27T06:09:08.290Z,18.78
2023-08-27T06:11:41.395Z,18.84
2023-08-27T06:14:15.553Z,18.96
2023-08-27T06:16:49.038Z,19.04
2023-08-27T06:19:21.643Z,19.16
2023-08-27T06:21:54.609Z,19.32
2023-08-27T06:24:27.816Z,19.46
2023-08-27T06:27:00.883Z,19.58
2023-08-27T06:29:35.539Z,19.72
2023-08-27T06:32:08.423Z,19.87
2023-08-27T06:34:42.326Z,20.14
2023-08-27T06:37:15.034Z,20.27
2023-08-27T06:39:48.823Z,20.61
2023-08-27T06:42:22.162Z,20.85
2023-08-27T06:44:59.903Z,21.16
2023-08-27T06:47:33.271Z,21.37
2023-08-27T06:50:07.593Z,21.58
2023-08-27T06:52:40.675Z,21.66
2023-08-27T06:55:13.443Z,21.87
2023-08-27T06:57:46.327Z,21.93
2023-08-27T07:00:21.541Z,21.65
2023-08-27T07:02:54.819Z,21.73
2023-08-27T07:05:28.064Z,21.61
2023-08-27T07:08:01.617Z,21.63
2023-08-27T07:10:35.348Z,21.58
2023-08-27T07:13:08.089Z,21.50
2023-08-27T07:15:43.008Z,21.41
2023-08-27T07:18:16.668Z,21.30
2023-08-27T07:20:49.734Z,21.21
2023-08-27T07:23:22.508Z,21.13
2023-08-27T07:25:55.144Z,21.08
2023-08-27T07:28:28.432Z,21.02
2023-08-27T07:31:02.717Z,21.03
2023-08-27T07:33:36.065Z,21.03
2023-08-27T07:36:09.218Z,21.02
2023-08-27T07:38:43.376Z,20.96
2023-08-27T07:41:16.010Z,21.03
2023-08-27T07:43:49.799Z,21.09
2023-08-27T07:46:26.015Z,21.17
2023-08-27T07:48:58.681Z,21.25
2023-08-27T07:51:32.209Z,21.27
2023-08-27T07:54:05.233Z,21.40
2023-08-27T07:56:38.754Z,21.48
2023-08-27T07:59:11.646Z,21.59
2023-08-27T08:01:48.403Z,21.70
2023-08-27T08:04:22.436Z,21.76
2023-08-27T08:06:55.608Z,21.83
2023-08-27T08:09:28.166Z,21.91
2023-08-27T08:12:01.612Z,21.87
2023-08-27T08:14:34.679Z,21.86
2023-08-27T08:17:11.278Z,21.81
2023-08-27T08:19:45.216Z,21.75
2023-08-27T08:22:18.123Z,21.78
2023-08-27T08:24:51.266Z,21.78
2023-08-27T08:27:24.320Z,21.80
2023-08-27T08:29:57.293Z,21.73
2023-08-27T08:32:31.911Z,21.78
2023-08-27T08:35:06.057Z,21.80
2023-08-27T08:37:39.225Z,21.79
2023-08-27T08:40:12.932Z,21.82
2023-08-27T08:42:58.823Z,21.88
2023-08-27T08:45:38.727Z,21.96
2023-08-27T08:48:15.232Z,22.02
2023-08-27T08:50:48.430Z,22.07
2023-08-27T08:53:26.948Z,22.10
2023-08-27T08:56:03.704Z,22.09
2023-08-27T08:58:37.913Z,22.05
2023-08-27T09:01:11.143Z,22.00
2023-08-27T09:03:47.750Z,21.93
2023-08-27T09:06:21.362Z,21.87
2023-08-27T09:08:54.756Z,21.80
2023-08-27T09:11:28.962Z,21.76
2023-08-27T09:14:04.879Z,21.81
2023-08-27T09:16:37.859Z,21.82
2023-08-27T09:19:12.585Z,21.93
2023-08-27T09:21:46.235Z,21.94
2023-08-27T09:24:19.563Z,22.13
2023-08-27T09:26:52.154Z,22.21
2023-08-27T09:29:27.734Z,22.28
2023-08-27T09:32:00.968Z,22.33
2023-08-27T09:34:40.455Z,22.40
2023-08-27T09:37:14.344Z,22.43
2023-08-27T09:39:48.136Z,22.48
2023-08-27T09:42:22.579Z,22.48
2023-08-27T09:44:55.224Z,22.60
2023-08-27T09:47:35.039Z,22.59
2023-08-27T09:50:16.199Z,22.75
2023-08-27T09:52:49.678Z,22.78
2023-08-27T09:55:23.173Z,22.79
2023-08-27T09:57:59.562Z,22.76
2023-08-27T10:00:33.664Z,22.76
2023-08-27T10:03:07.734Z,22.65
2023-08-27T10:05:42.184Z,22.58
2023-08-27T10:08:14.756Z,22.61
2023-08-27T10:10:47.887Z,22.57
2023-08-27T10:13:22.894Z,22.52
2023-08-27T10:15:56.194Z,22.50
2023-08-27T10:18:29.728Z,22.45
2023-08-27T10:21:04.781Z,22.37
2023-08-27T10:23:40.003Z,22.23
2023-08-27T10:26:15.574Z,22.38
2023-08-27T10:28:49.866Z,22.37
2023-08-27T10:31:22.534Z,22.35
2023-08-27T10:33:55.714Z,22.34
2023-08-27T10:36:35.489Z,22.29
2023-08-27T10:39:09.852Z,22.38
2023-08-27T10:41:42.466Z,22.30
2023-08-27T10:44:21.131Z,22.45
2023-08-27T10:47:10.937Z,22.52
2023-08-27T10:49:48.733Z,22.57
2023-08-27T10:52:27.358Z,22.63
2023-08-27T10:55:01.697Z,22.65
2023-08-27T10:57:37.824Z,22.73
2023-08-27T11:00:12.408Z,22.75
2023-08-27T11:02:59.102Z,22.80
2023-08-27T11:05:32.369Z,22.81
2023-08-27T11:08:15.895Z,22.82
2023-08-27T11:10:49.235Z,22.81
2023-08-27T11:13:38.158Z,22.85
2023-08-27T11:16:13.219Z,22.85
2023-08-27T11:18:49.195Z,22.88
2023-08-27T11:21:41.759Z,22.95
2023-08-27T11:24:17.119Z,23.01
2023-08-27T11:26:50.449Z,23.07
2023-08-27T11:29:25.387Z,23.12
2023-08-27T11:32:00.554Z,23.16
2023-08-27T11:34:36.634Z,23.16
2023-08-27T11:37:10.874Z,23.31
2023-08-27T11:39:45.902Z,23.26
2023-08-27T11:42:19.328Z,23.36
2023-08-27T11:44:53.752Z,23.34
2023-08-27T11:47:26.680Z,23.33
2023-08-27T11:50:00.771Z,23.33
2023-08-27T11:52:37.394Z,23.30
2023-08-27T11:55:11.903Z,23.19
2023-08-27T11:57:46.027Z,23.20
2023-08-27T12:00:19.133Z,23.13
2023-08-27T12:02:52.287Z,23.05
2023-08-27T12:05:28.699Z,23.03
2023-08-27T12:08:06.697Z,23.04
2023-08-27T12:10:45.895Z,23.07
2023-08-27T12:13:19.010Z,23.07
2023-08-27T12:15:55.391Z,23.10
2023-08-27T12:18:35.497Z,23.13
2023-08-27T12:21:09.185Z,23.17
2023-08-27T12:23:53.107Z,23.23
2023-08-27T12:26:27.578Z,23.19
2023-08-27T12:29:00.623Z,23.21
2023-08-27T12:31:33.552Z,23.23
2023-08-27T12:34:06.753Z,23.22
2023-08-27T12:36:39.269Z,23.18
2023-08-27T12:39:12.142Z,23.19
2023-08-27T12:41:46.255Z,23.16
2023-08-27T12:44:19.667Z,23.08
2023-08-27T12:46:52.197Z,23.13
2023-08-27T12:49:26.218Z,22.98
2023-08-27T12:51:58.800Z,23.10
2023-08-27T12:54:32.097Z,22.96
2023-08-27T12:57:06.817Z,23.04
2023-08-27T12:59:40.206Z,22.91
2023-08-27T13:02:13.002Z,23.01
2023-08-27T13:04:45.984Z,22.96
2023-08-27T13:07:18.914Z,22.98
2023-08-27T13:09:53.130Z,22.95
2023-08-27T13:12:28.331Z,22.90
2023-08-27T13:15:01.278Z,22.89
2023-08-27T13:17:37.298Z,22.91
2023-08-27T13:20:12.054Z,22.90
2023-08-27T13:22:44.618Z,22.85
2023-08-27T13:25:18.038Z,22.87
2023-08-27T13:27:52.501Z,22.86
2023-08-27T13:30:26.126Z,22.85
2023-08-27T13:32:59.524Z,22.84
2023-08-27T13:35:32.430Z,22.83
2023-08-27T13:38:05.489Z,22.79
2023-08-27T13:40:39.592Z,22.69
2023-08-27T13:43:13.589Z,22.67
2023-08-27T13:45:47.089Z,22.69
2023-08-27T13:48:21.650Z,22.64
2023-08-27T13:50:54.524Z,22.62
2023-08-27T13:53:29.043Z,22.61
2023-08-27T13:56:01.714Z,22.64
2023-08-27T13:58:36.700Z,22.61
2023-08-27T14:01:09.824Z,22.61
2023-08-27T14:03:43.069Z,22.63
2023-08-27T14:06:15.678Z,22.63
2023-08-27T14:08:49.354Z,22.65
2023-08-27T14:11:22.265Z,22.64
2023-08-27T14:13:56.564Z,22.71
2023-08-27T14:16:29.573Z,22.73
2023-08-27T14:19:02.158Z,22.79
2023-08-27T14:21:35.368Z,22.80
2023-08-27T14:24:08.790Z,22.80
2023-08-27T14:26:42.074Z,22.60
2023-08-27T14:31:49.291Z,22.77
2023-08-27T14:34:22.511Z,22.64
2023-08-27T14:36:55.108Z,22.72
2023-08-27T14:39:28.564Z,22.69
2023-08-27T14:42:01.178Z,22.67
2023-08-27T14:44:35.511Z,22.54
2023-08-27T14:47:08.687Z,22.51
2023-08-27T14:49:41.863Z,22.54
2023-08-27T14:52:15.262Z,22.53
2023-08-27T14:54:48.065Z,22.48
2023-08-27T14:57:21.069Z,22.43
2023-08-27T14:59:55.095Z,22.45
2023-08-27T15:02:28.480Z,22.45
2023-08-27T15:05:01.062Z,22.43
2023-08-27T15:07:35.198Z,22.42
2023-08-27T15:10:08.807Z,22.39
2023-08-27T15:12:42.114Z,22.35
2023-08-27T15:15:16.114Z,22.34
2023-08-27T15:17:49.308Z,22.30
2023-08-27T15:20:23.040Z,22.24
2023-08-27T15:22:56.161Z,22.23
2023-08-27T15:25:28.771Z,22.19
2023-08-27T15:28:02.232Z,22.15
2023-08-27T15:30:37.128Z,22.12
2023-08-27T15:36:00.736Z,22.04
2023-08-27T15:38:33.287Z,22.01
2023-08-27T15:41:06.447Z,21.98
2023-08-27T15:43:41.482Z,21.95
2023-08-27T15:46:16.570Z,21.89
2023-08-27T15:48:49.280Z,21.85
2023-08-27T15:51:24.781Z,21.83
2023-08-27T15:53:57.615Z,21.78
2023-08-27T15:56:30.751Z,21.65
2023-08-27T15:59:04.030Z,21.66
2023-08-27T16:01:38.658Z,21.66
2023-08-27T16:04:11.859Z,21.52
2023-08-27T16:06:45.061Z,21.58
2023-08-27T16:09:18.358Z,21.54
2023-08-27T16:11:51.303Z,21.40
2023-08-27T16:14:24.124Z,21.46
2023-08-27T16:16:58.833Z,21.42
2023-08-27T16:19:31.310Z,21.38
2023-08-27T16:22:04.785Z,21.36
2023-08-27T16:24:37.446Z,21.32
2023-08-27T16:27:10.028Z,21.27
2023-08-27T16:29:42.872Z,21.17
2023-08-27T16:32:17.696Z,21.21
2023-08-27T16:34:50.692Z,21.21
2023-08-27T16:37:23.620Z,21.17
2023-08-27T16:39:56.413Z,21.11
2023-08-27T16:42:31.902Z,21.04
2023-08-27T16:45:06.396Z,21.04
2023-08-27T16:47:40.424Z,21.01
2023-08-27T16:50:13.376Z,20.93
2023-08-27T16:52:46.099Z,20.95
2023-08-27T16:55:19.176Z,20.92
2023-08-27T16:57:51.982Z,20.88
2023-08-27T17:00:25.195Z,20.84
2023-08-27T17:03:01.920Z,20.76
2023-08-27T17:05:35.469Z,20.77
2023-08-27T17:08:08.611Z,20.74
2023-08-27T17:10:41.688Z,20.71
2023-08-27T17:13:14.212Z,20.66
2023-08-27T17:15:47.730Z,20.65
2023-08-27T17:18:21.865Z,20.62
2023-08-27T17:20:55.212Z,20.53
2023-08-27T17:23:28.108Z,20.45
2023-08-27T17:26:01.525Z,20.49
2023-08-27T17:28:35.064Z,20.39
2023-08-27T17:31:08.460Z,20.40
2023-08-27T17:33:43.459Z,20.36
2023-08-27T17:36:16.445Z,20.36
2023-08-27T17:38:49.046Z,20.34
2023-08-27T17:41:26.254Z,20.30
2023-08-27T17:43:58.917Z,20.34
2023-08-27T17:46:31.591Z,20.32
2023-08-27T17:49:05.846Z,20.39
2023-08-27T17:51:38.907Z,20.40
2023-08-27T17:54:11.749Z,20.37
2023-08-27T17:56:45.036Z,20.35
2023-08-27T17:59:17.834Z,20.40
2023-08-27T18:01:50.948Z,20.42
2023-08-27T18:04:25.203Z,20.43
2023-08-27T18:06:58.724Z,20.42
2023-08-27T18:09:31.285Z,20.38
2023-08-27T18:12:05.424Z,20.39
2023-08-27T18:14:38.013Z,20.37
2023-08-27T18:17:11.306Z,20.36
2023-08-27T18:19:45.611Z,20.35
2023-08-27T18:22:18.674Z,20.28
2023-08-27T18:24:51.191Z,20.27
2023-08-27T18:27:24.663Z,20.23
2023-08-27T18:29:57.188Z,20.21
2023-08-27T18:32:30.747Z,20.19
2023-08-27T18:35:06.766Z,20.15
2023-08-27T18:37:40.504Z,20.15
2023-08-27T18:40:13.058Z,20.09
2023-08-27T18:42:46.910Z,20.08
2023-08-27T18:45:19.702Z,20.06
2023-08-27T18:47:54.463Z,20.05
2023-08-27T18:50:28.767Z,20.02
2023-08-27T18:53:02.094Z,20.01
2023-08-27T18:55:34.746Z,19.98
2023-08-27T18:58:07.903Z,19.88
2023-08-27T19:00:40.386Z,19.92
2023-08-27T19:03:13.475Z,19.91
2023-08-27T19:05:47.477Z,19.84
2023-08-27T19:08:21.097Z,19.86
2023-08-27T19:10:54.364Z,19.86
2023-08-27T19:13:28.976Z,19.85
2023-08-27T19:16:01.504Z,19.84
2023-08-27T19:18:35.170Z,19.84
2023-08-27T19:21:09.157Z,19.83
2023-08-27T19:23:43.445Z,19.80
2023-08-27T19:26:17.884Z,19.80
2023-08-27T19:28:51.261Z,19.82
2023-08-27T19:31:40.573Z,19.83
2023-08-27T19:34:20.148Z,19.83
2023-08-27T19:36:57.490Z,19.83
2023-08-27T19:39:30.529Z,19.76
2023-08-27T19:42:03.708Z,19.80
2023-08-27T19:44:36.736Z,19.79
2023-08-27T19:47:10.659Z,19.64
2023-08-27T19:49:43.378Z,19.75
2023-08-27T19:52:18.885Z,19.69
2023-08-27T19:54:52.428Z,19.69
2023-08-27T19:57:25.136Z,19.68
2023-08-27T19:59:58.844Z,19.71
2023-08-27T20:02:31.494Z,19.70
2023-08-27T20:05:04.855Z,19.62
2023-08-27T20:07:39.964Z,19.70
2023-08-27T20:10:13.357Z,19.71
2023-08-27T20:12:47.231Z,19.70
2023-08-27T20:15:19.817Z,19.64
2023-08-27T20:17:56.701Z,19.69
2023-08-27T20:20:30.862Z,19.67
2023-08-27T20:23:05.453Z,19.69
2023-08-27T20:25:38.314Z,19.68
2023-08-27T20:28:11.802Z,19.66
2023-08-27T20:30:47.320Z,19.62
2023-08-27T20:33:20.606Z,19.66
2023-08-27T20:35:53.183Z,19.55
2023-08-27T20:38:27.834Z,19.53
2023-08-27T20:41:03.371Z,19.62
2023-08-27T20:43:38.785Z,19.62
2023-08-27T20:46:12.940Z,19.50
2023-08-27T20:48:46.273Z,19.57
2023-08-27T20:51:18.865Z,19.60
2023-08-27T20:53:55.827Z,19.63
2023-08-27T20:56:28.383Z,19.64
2023-08-27T20:59:00.981Z,19.64
2023-08-27T21:01:33.928Z,19.64
2023-08-27T21:04:07.471Z,19.63
2023-08-27T21:06:40.406Z,19.62
2023-08-27T21:09:14.986Z,19.63
2023-08-27T21:11:48.186Z,19.57
2023-08-27T21:14:21.622Z,19.64
2023-08-27T21:16:54.374Z,19.63
2023-08-27T21:19:27.962Z,19.63
2023-08-27T21:22:01.297Z,19.66
2023-08-27T21:24:36.094Z,19.69
2023-08-27T21:27:08.806Z,19.72
2023-08-27T21:29:41.551Z,19.74
2023-08-27T21:32:15.002Z,19.75
2023-08-27T21:34:48.021Z,19.76
2023-08-27T21:37:21.027Z,19.73
2023-08-27T21:39:55.911Z,19.76
2023-08-27T21:42:28.555Z,19.76
2023-08-27T21:45:01.396Z,19.70
2023-08-27T21:47:36.887Z,19.72
2023-08-27T21:50:10.286Z,19.78
2023-08-27T21:52:42.941Z,19.78
2023-08-27T21:55:17.520Z,19.75
2023-08-27T21:57:53.390Z,19.80
2023-08-27T22:00:26.797Z,19.81
2023-08-27T22:02:59.548Z,19.79
2023-08-27T22:05:32.289Z,19.82
2023-08-27T22:08:05.822Z,19.77
2023-08-27T22:10:40.576Z,19.80
2023-08-27T22:13:14.115Z,19.76
2023-08-27T22:15:46.995Z,19.71
2023-08-27T22:18:20.063Z,19.71
2023-08-27T22:20:52.561Z,19.70
2023-08-27T22:23:25.714Z,19.69
2023-08-27T22:25:59.919Z,19.60
2023-08-27T22:28:32.622Z,19.58
2023-08-27T22:31:06.156Z,19.58
2023-08-27T22:33:39.556Z,19.55
2023-08-27T22:36:12.347Z,19.48
2023-08-27T22:38:46.960Z,19.53
2023-08-27T22:41:20.964Z,19.45
2023-08-27T22:43:54.338Z,19.44
2023-08-27T22:46:27.120Z,19.35
2023-08-27T22:49:00.223Z,19.14
2023-08-27T22:51:33.143Z,19.20
2023-08-27T22:54:06.200Z,19.12
2023-08-27T22:56:40.698Z,19.07
2023-08-27T22:59:14.026Z,18.99
2023-08-27T23:01:46.644Z,18.98
2023-08-27T23:04:20.105Z,18.95
2023-08-27T23:06:52.704Z,18.93
2023-08-27T23:09:25.996Z,18.93
2023-08-27T23:11:59.986Z,18.90
2023-08-27T23:14:34.283Z,18.91
2023-08-27T23:17:07.174Z,18.90
2023-08-27T23:19:41.612Z,18.89
2023-08-27T23:22:14.512Z,18.78
2023-08-27T23:24:48.596Z,18.87
2023-08-27T23:27:22.521Z,18.87
2023-08-27T23:29:55.788Z,18.86
2023-08-27T23:32:29.084Z,18.83
2023-08-27T23:35:04.009Z,18.87
2023-08-27T23:37:36.600Z,18.86
2023-08-27T23:40:11.495Z,18.78
2023-08-27T23:42:45.808Z,18.85
2023-08-27T23:45:18.665Z,18.83
2023-08-27T23:47:51.711Z,18.77
2023-08-27T23:50:24.516Z,18.78
2023-08-27T23:52:57.999Z,18.75
2023-08-27T23:55:30.597Z,18.67
2023-08-27T23:58:05.447Z,18.66
